sensor_id;sensor_type;location;lat;lon;timestamp;P1;durP1;ratioP1;P2;durP2;ratioP2
25381;SDS011;16307;42.896;20.874;2023-09-07T00:00:17;10.75;;;6.13;;
25381;SDS011;16307;42.896;20.874;2023-09-07T00:03:03;9.20;;;6.30;;
25381;SDS011;16307;42.896;20.874;2023-09-07T00:05:50;11.00;;;5.72;;
25381;SDS011;16307;42.896;20.874;2023-09-07T00:08:36;15.05;;;5.80;;
25381;SDS011;16307;42.896;20.874;2023-09-07T00:11:22;7.93;;;5.53;;
25381;SDS011;16307;42.896;20.874;2023-09-07T00:14:09;10.60;;;6.35;;
25381;SDS011;16307;42.896;20.874;2023-09-07T00:16:55;11.77;;;6.50;;
25381;SDS011;16307;42.896;20.874;2023-09-07T00:19:41;9.15;;;5.97;;
25381;SDS011;16307;42.896;20.874;2023-09-07T00:22:27;7.68;;;6.03;;
25381;SDS011;16307;42.896;20.874;2023-09-07T00:25:13;10.40;;;5.75;;
25381;SDS011;16307;42.896;20.874;2023-09-07T00:27:59;9.02;;;5.85;;
25381;SDS011;16307;42.896;20.874;2023-09-07T00:30:45;10.43;;;6.38;;
25381;SDS011;16307;42.896;20.874;2023-09-07T00:33:31;9.20;;;5.72;;
25381;SDS011;16307;42.896;20.874;2023-09-07T00:36:17;11.90;;;6.57;;
25381;SDS011;16307;42.896;20.874;2023-09-07T00:39:04;10.77;;;6.53;;
25381;SDS011;16307;42.896;20.874;2023-09-07T00:41:50;10.73;;;5.95;;
25381;SDS011;16307;42.896;20.874;2023-09-07T00:44:37;9.80;;;5.80;;
25381;SDS011;16307;42.896;20.874;2023-09-07T00:47:22;10.70;;;5.78;;
25381;SDS011;16307;42.896;20.874;2023-09-07T00:50:09;14.80;;;5.90;;
25381;SDS011;16307;42.896;20.874;2023-09-07T00:52:55;9.15;;;5.88;;
25381;SDS011;16307;42.896;20.874;2023-09-07T00:55:41;9.52;;;6.20;;
25381;SDS011;16307;42.896;20.874;2023-09-07T00:58:27;9.02;;;5.95;;
25381;SDS011;16307;42.896;20.874;2023-09-07T01:01:14;11.35;;;6.18;;
25381;SDS011;16307;42.896;20.874;2023-09-07T01:04:00;9.95;;;6.90;;
25381;SDS011;16307;42.896;20.874;2023-09-07T01:06:56;10.45;;;5.65;;
25381;SDS011;16307;42.896;20.874;2023-09-07T01:09:45;9.50;;;5.70;;
25381;SDS011;16307;42.896;20.874;2023-09-07T01:12:36;9.07;;;5.47;;
25381;SDS011;16307;42.896;20.874;2023-09-07T01:15:22;9.77;;;5.90;;
25381;SDS011;16307;42.896;20.874;2023-09-07T01:18:08;9.77;;;5.72;;
25381;SDS011;16307;42.896;20.874;2023-09-07T01:21:09;8.88;;;5.60;;
25381;SDS011;16307;42.896;20.874;2023-09-07T01:23:56;10.70;;;5.93;;
25381;SDS011;16307;42.896;20.874;2023-09-07T01:26:43;8.68;;;5.72;;
25381;SDS011;16307;42.896;20.874;2023-09-07T01:29:29;10.02;;;6.25;;
25381;SDS011;16307;42.896;20.874;2023-09-07T01:32:16;10.23;;;6.10;;
25381;SDS011;16307;42.896;20.874;2023-09-07T01:35:02;9.52;;;6.57;;
25381;SDS011;16307;42.896;20.874;2023-09-07T01:37:51;9.98;;;5.95;;
25381;SDS011;16307;42.896;20.874;2023-09-07T01:40:37;9.07;;;6.22;;
25381;SDS011;16307;42.896;20.874;2023-09-07T01:43:23;7.50;;;5.32;;
25381;SDS011;16307;42.896;20.874;2023-09-07T01:46:08;7.97;;;5.95;;
25381;SDS011;16307;42.896;20.874;2023-09-07T01:48:55;10.43;;;5.53;;
25381;SDS011;16307;42.896;20.874;2023-09-07T01:51:41;10.63;;;6.18;;
25381;SDS011;16307;42.896;20.874;2023-09-07T01:54:27;9.43;;;5.70;;
25381;SDS011;16307;42.896;20.874;2023-09-07T01:57:13;11.30;;;5.85;;
25381;SDS011;16307;42.896;20.874;2023-09-07T02:00:00;9.52;;;5.97;;
25381;SDS011;16307;42.896;20.874;2023-09-07T02:02:45;7.68;;;5.47;;
25381;SDS011;16307;42.896;20.874;2023-09-07T02:05:32;9.77;;;5.95;;
25381;SDS011;16307;42.896;20.874;2023-09-07T02:08:18;9.70;;;5.65;;
25381;SDS011;16307;42.896;20.874;2023-09-07T02:11:05;15.00;;;5.95;;
25381;SDS011;16307;42.896;20.874;2023-09-07T02:13:51;10.05;;;5.65;;
25381;SDS011;16307;42.896;20.874;2023-09-07T02:16:37;12.68;;;5.60;;
25381;SDS011;16307;42.896;20.874;2023-09-07T02:19:23;7.70;;;5.53;;
25381;SDS011;16307;42.896;20.874;2023-09-07T02:22:09;7.35;;;5.30;;
25381;SDS011;16307;42.896;20.874;2023-09-07T02:24:56;16.45;;;5.65;;
25381;SDS011;16307;42.896;20.874;2023-09-07T02:27:42;8.57;;;5.60;;
25381;SDS011;16307;42.896;20.874;2023-09-07T02:30:28;12.50;;;6.68;;
25381;SDS011;16307;42.896;20.874;2023-09-07T02:33:14;9.30;;;5.72;;
25381;SDS011;16307;42.896;20.874;2023-09-07T02:36:00;9.30;;;5.32;;
25381;SDS011;16307;42.896;20.874;2023-09-07T02:38:46;8.43;;;5.57;;
25381;SDS011;16307;42.896;20.874;2023-09-07T02:41:32;8.38;;;5.40;;
25381;SDS011;16307;42.896;20.874;2023-09-07T02:44:18;12.35;;;5.75;;
25381;SDS011;16307;42.896;20.874;2023-09-07T02:47:04;9.27;;;5.63;;
25381;SDS011;16307;42.896;20.874;2023-09-07T02:49:50;9.60;;;5.55;;
25381;SDS011;16307;42.896;20.874;2023-09-07T02:52:36;8.77;;;5.05;;
25381;SDS011;16307;42.896;20.874;2023-09-07T02:55:22;7.55;;;4.88;;
25381;SDS011;16307;42.896;20.874;2023-09-07T02:58:09;9.07;;;5.63;;
25381;SDS011;16307;42.896;20.874;2023-09-07T03:00:55;9.35;;;5.63;;
25381;SDS011;16307;42.896;20.874;2023-09-07T03:03:43;7.22;;;5.18;;
25381;SDS011;16307;42.896;20.874;2023-09-07T03:06:29;9.32;;;5.20;;
25381;SDS011;16307;42.896;20.874;2023-09-07T03:09:16;12.32;;;5.70;;
25381;SDS011;16307;42.896;20.874;2023-09-07T03:12:02;11.02;;;5.38;;
25381;SDS011;16307;42.896;20.874;2023-09-07T03:14:48;9.55;;;5.55;;
25381;SDS011;16307;42.896;20.874;2023-09-07T03:17:36;10.02;;;5.43;;
25381;SDS011;16307;42.896;20.874;2023-09-07T03:20:22;7.47;;;5.22;;
25381;SDS011;16307;42.896;20.874;2023-09-07T03:23:09;12.32;;;5.78;;
25381;SDS011;16307;42.896;20.874;2023-09-07T03:25:56;9.88;;;5.63;;
25381;SDS011;16307;42.896;20.874;2023-09-07T03:28:43;10.68;;;6.13;;
25381;SDS011;16307;42.896;20.874;2023-09-07T03:31:29;11.38;;;5.50;;
25381;SDS011;16307;42.896;20.874;2023-09-07T03:34:15;10.15;;;5.60;;
25381;SDS011;16307;42.896;20.874;2023-09-07T03:37:02;8.27;;;5.45;;
25381;SDS011;16307;42.896;20.874;2023-09-07T03:39:52;7.63;;;5.75;;
25381;SDS011;16307;42.896;20.874;2023-09-07T03:42:38;11.50;;;5.20;;
25381;SDS011;16307;42.896;20.874;2023-09-07T03:45:26;7.22;;;5.55;;
25381;SDS011;16307;42.896;20.874;2023-09-07T03:48:12;11.68;;;5.38;;
25381;SDS011;16307;42.896;20.874;2023-09-07T03:50:57;11.65;;;5.72;;
25381;SDS011;16307;42.896;20.874;2023-09-07T03:53:44;10.00;;;5.53;;
25381;SDS011;16307;42.896;20.874;2023-09-07T03:56:30;13.10;;;5.78;;
25381;SDS011;16307;42.896;20.874;2023-09-07T03:59:16;10.50;;;5.65;;
25381;SDS011;16307;42.896;20.874;2023-09-07T04:02:02;9.23;;;5.55;;
25381;SDS011;16307;42.896;20.874;2023-09-07T04:04:49;9.80;;;5.22;;
25381;SDS011;16307;42.896;20.874;2023-09-07T04:07:36;7.00;;;5.20;;
25381;SDS011;16307;42.896;20.874;2023-09-07T04:10:23;12.20;;;5.38;;
25381;SDS011;16307;42.896;20.874;2023-09-07T04:13:10;8.73;;;5.30;;
25381;SDS011;16307;42.896;20.874;2023-09-07T04:15:56;10.73;;;5.10;;
25381;SDS011;16307;42.896;20.874;2023-09-07T04:18:42;7.90;;;5.55;;
25381;SDS011;16307;42.896;20.874;2023-09-07T04:21:30;8.00;;;5.55;;
25381;SDS011;16307;42.896;20.874;2023-09-07T04:24:17;8.65;;;5.60;;
25381;SDS011;16307;42.896;20.874;2023-09-07T04:27:03;12.63;;;6.10;;
25381;SDS011;16307;42.896;20.874;2023-09-07T04:29:51;8.10;;;5.30;;
25381;SDS011;16307;42.896;20.874;2023-09-07T04:32:37;9.15;;;5.88;;
25381;SDS011;16307;42.896;20.874;2023-09-07T04:35:30;8.88;;;5.57;;
25381;SDS011;16307;42.896;20.874;2023-09-07T04:38:17;8.95;;;5.60;;
25381;SDS011;16307;42.896;20.874;2023-09-07T04:41:10;9.32;;;5.22;;
25381;SDS011;16307;42.896;20.874;2023-09-07T04:43:58;8.85;;;5.53;;
25381;SDS011;16307;42.896;20.874;2023-09-07T04:46:44;10.20;;;6.35;;
25381;SDS011;16307;42.896;20.874;2023-09-07T04:49:30;9.55;;;5.65;;
25381;SDS011;16307;42.896;20.874;2023-09-07T04:52:16;8.38;;;5.50;;
25381;SDS011;16307;42.896;20.874;2023-09-07T04:55:02;9.05;;;4.97;;
25381;SDS011;16307;42.896;20.874;2023-09-07T04:57:49;9.98;;;5.60;;
25381;SDS011;16307;42.896;20.874;2023-09-07T05:00:35;9.43;;;5.50;;
25381;SDS011;16307;42.896;20.874;2023-09-07T05:03:21;11.18;;;5.80;;
25381;SDS011;16307;42.896;20.874;2023-09-07T05:06:08;9.95;;;5.28;;
25381;SDS011;16307;42.896;20.874;2023-09-07T05:08:54;7.15;;;5.35;;
25381;SDS011;16307;42.896;20.874;2023-09-07T05:11:40;9.90;;;5.43;;
25381;SDS011;16307;42.896;20.874;2023-09-07T05:14:26;9.45;;;5.30;;
25381;SDS011;16307;42.896;20.874;2023-09-07T05:17:12;9.25;;;5.43;;
25381;SDS011;16307;42.896;20.874;2023-09-07T05:19:58;7.88;;;5.35;;
25381;SDS011;16307;42.896;20.874;2023-09-07T05:22:44;8.32;;;5.50;;
25381;SDS011;16307;42.896;20.874;2023-09-07T05:25:31;10.25;;;5.55;;
25381;SDS011;16307;42.896;20.874;2023-09-07T05:28:17;9.13;;;6.00;;
25381;SDS011;16307;42.896;20.874;2023-09-07T05:31:04;10.90;;;5.45;;
25381;SDS011;16307;42.896;20.874;2023-09-07T05:33:51;13.63;;;5.32;;
25381;SDS011;16307;42.896;20.874;2023-09-07T05:36:37;10.52;;;5.93;;
25381;SDS011;16307;42.896;20.874;2023-09-07T05:39:24;8.40;;;5.30;;
25381;SDS011;16307;42.896;20.874;2023-09-07T05:42:10;11.07;;;6.22;;
25381;SDS011;16307;42.896;20.874;2023-09-07T05:44:56;10.73;;;4.88;;
25381;SDS011;16307;42.896;20.874;2023-09-07T05:47:42;9.40;;;6.35;;
25381;SDS011;16307;42.896;20.874;2023-09-07T05:50:29;11.45;;;5.88;;
25381;SDS011;16307;42.896;20.874;2023-09-07T05:53:15;11.77;;;6.20;;
25381;SDS011;16307;42.896;20.874;2023-09-07T05:56:01;13.98;;;5.65;;
25381;SDS011;16307;42.896;20.874;2023-09-07T05:58:48;13.88;;;6.07;;
25381;SDS011;16307;42.896;20.874;2023-09-07T06:01:34;11.57;;;5.90;;
25381;SDS011;16307;42.896;20.874;2023-09-07T06:04:20;9.25;;;6.07;;
25381;SDS011;16307;42.896;20.874;2023-09-07T06:07:06;8.73;;;5.20;;
25381;SDS011;16307;42.896;20.874;2023-09-07T06:09:53;9.77;;;5.50;;
25381;SDS011;16307;42.896;20.874;2023-09-07T06:12:39;10.80;;;5.53;;
25381;SDS011;16307;42.896;20.874;2023-09-07T06:15:26;8.85;;;5.47;;
25381;SDS011;16307;42.896;20.874;2023-09-07T06:18:12;7.28;;;5.57;;
25381;SDS011;16307;42.896;20.874;2023-09-07T06:20:59;11.70;;;5.90;;
25381;SDS011;16307;42.896;20.874;2023-09-07T06:23:45;6.47;;;5.20;;
25381;SDS011;16307;42.896;20.874;2023-09-07T06:26:31;7.63;;;5.78;;
25381;SDS011;16307;42.896;20.874;2023-09-07T06:29:17;7.82;;;5.22;;
25381;SDS011;16307;42.896;20.874;2023-09-07T06:32:04;7.78;;;5.60;;
25381;SDS011;16307;42.896;20.874;2023-09-07T06:34:51;10.35;;;5.28;;
25381;SDS011;16307;42.896;20.874;2023-09-07T06:37:37;10.13;;;5.10;;
25381;SDS011;16307;42.896;20.874;2023-09-07T06:40:28;9.82;;;5.40;;
25381;SDS011;16307;42.896;20.874;2023-09-07T06:43:16;10.02;;;5.63;;
25381;SDS011;16307;42.896;20.874;2023-09-07T06:46:06;11.68;;;5.78;;
25381;SDS011;16307;42.896;20.874;2023-09-07T06:48:54;13.88;;;6.07;;
25381;SDS011;16307;42.896;20.874;2023-09-07T06:51:41;15.45;;;6.07;;
25381;SDS011;16307;42.896;20.874;2023-09-07T06:54:28;12.70;;;5.60;;
25381;SDS011;16307;42.896;20.874;2023-09-07T06:57:15;10.23;;;5.90;;
25381;SDS011;16307;42.896;20.874;2023-09-07T07:00:02;9.32;;;5.13;;
25381;SDS011;16307;42.896;20.874;2023-09-07T07:02:51;10.45;;;5.20;;
25381;SDS011;16307;42.896;20.874;2023-09-07T07:05:39;7.25;;;4.88;;
25381;SDS011;16307;42.896;20.874;2023-09-07T07:08:26;9.35;;;6.10;;
25381;SDS011;16307;42.896;20.874;2023-09-07T07:11:11;9.18;;;4.88;;
25381;SDS011;16307;42.896;20.874;2023-09-07T07:13:58;8.07;;;5.05;;
25381;SDS011;16307;42.896;20.874;2023-09-07T07:16:44;8.43;;;4.75;;
25381;SDS011;16307;42.896;20.874;2023-09-07T07:19:31;12.40;;;5.93;;
25381;SDS011;16307;42.896;20.874;2023-09-07T07:22:19;10.82;;;5.32;;
25381;SDS011;16307;42.896;20.874;2023-09-07T07:25:08;10.02;;;5.40;;
25381;SDS011;16307;42.896;20.874;2023-09-07T07:27:55;11.45;;;5.72;;
25381;SDS011;16307;42.896;20.874;2023-09-07T07:30:42;12.90;;;5.88;;
25381;SDS011;16307;42.896;20.874;2023-09-07T07:33:29;11.48;;;6.05;;
25381;SDS011;16307;42.896;20.874;2023-09-07T07:36:16;20.35;;;7.88;;
25381;SDS011;16307;42.896;20.874;2023-09-07T07:39:02;23.02;;;8.77;;
25381;SDS011;16307;42.896;20.874;2023-09-07T07:41:49;20.33;;;8.07;;
25381;SDS011;16307;42.896;20.874;2023-09-07T07:44:36;13.95;;;6.22;;
25381;SDS011;16307;42.896;20.874;2023-09-07T07:47:22;14.82;;;7.22;;
25381;SDS011;16307;42.896;20.874;2023-09-07T07:50:08;14.40;;;6.63;;
25381;SDS011;16307;42.896;20.874;2023-09-07T07:52:54;9.88;;;5.80;;
25381;SDS011;16307;42.896;20.874;2023-09-07T07:55:41;12.60;;;5.93;;
25381;SDS011;16307;42.896;20.874;2023-09-07T07:58:31;15.63;;;7.50;;
25381;SDS011;16307;42.896;20.874;2023-09-07T08:01:18;13.45;;;7.47;;
25381;SDS011;16307;42.896;20.874;2023-09-07T08:04:08;10.25;;;7.13;;
25381;SDS011;16307;42.896;20.874;2023-09-07T08:06:54;13.38;;;6.95;;
25381;SDS011;16307;42.896;20.874;2023-09-07T08:09:43;11.45;;;6.00;;
25381;SDS011;16307;42.896;20.874;2023-09-07T08:12:30;8.57;;;6.55;;
25381;SDS011;16307;42.896;20.874;2023-09-07T08:15:16;12.27;;;5.95;;
25381;SDS011;16307;42.896;20.874;2023-09-07T08:18:06;9.35;;;5.18;;
25381;SDS011;16307;42.896;20.874;2023-09-07T08:20:55;7.60;;;5.70;;
25381;SDS011;16307;42.896;20.874;2023-09-07T08:23:41;12.95;;;5.95;;
25381;SDS011;16307;42.896;20.874;2023-09-07T08:26:28;11.77;;;6.95;;
25381;SDS011;16307;42.896;20.874;2023-09-07T08:29:14;11.27;;;6.57;;
25381;SDS011;16307;42.896;20.874;2023-09-07T08:32:00;8.82;;;6.55;;
25381;SDS011;16307;42.896;20.874;2023-09-07T08:34:50;12.48;;;5.68;;
25381;SDS011;16307;42.896;20.874;2023-09-07T08:37:36;9.55;;;6.38;;
25381;SDS011;16307;42.896;20.874;2023-09-07T08:40:22;11.23;;;6.25;;
25381;SDS011;16307;42.896;20.874;2023-09-07T08:43:09;10.35;;;5.82;;
25381;SDS011;16307;42.896;20.874;2023-09-07T08:46:19;11.38;;;5.10;;
25381;SDS011;16307;42.896;20.874;2023-09-07T08:49:06;12.43;;;6.03;;
25381;SDS011;16307;42.896;20.874;2023-09-07T08:51:57;11.40;;;6.70;;
25381;SDS011;16307;42.896;20.874;2023-09-07T08:54:44;13.48;;;7.65;;
25381;SDS011;16307;42.896;20.874;2023-09-07T08:57:34;15.60;;;7.13;;
25381;SDS011;16307;42.896;20.874;2023-09-07T09:00:20;14.00;;;7.53;;
25381;SDS011;16307;42.896;20.874;2023-09-07T09:03:07;14.80;;;7.55;;
25381;SDS011;16307;42.896;20.874;2023-09-07T09:05:53;13.93;;;7.88;;
25381;SDS011;16307;42.896;20.874;2023-09-07T09:08:44;11.30;;;5.80;;
25381;SDS011;16307;42.896;20.874;2023-09-07T09:11:40;11.90;;;6.40;;
25381;SDS011;16307;42.896;20.874;2023-09-07T09:14:26;8.25;;;5.38;;
25381;SDS011;16307;42.896;20.874;2023-09-07T09:17:16;8.63;;;5.22;;
25381;SDS011;16307;42.896;20.874;2023-09-07T09:20:02;10.50;;;5.70;;
25381;SDS011;16307;42.896;20.874;2023-09-07T09:22:52;7.28;;;5.78;;
25381;SDS011;16307;42.896;20.874;2023-09-07T09:25:40;8.75;;;5.47;;
25381;SDS011;16307;42.896;20.874;2023-09-07T09:28:26;8.75;;;5.47;;
25381;SDS011;16307;42.896;20.874;2023-09-07T09:31:17;9.75;;;5.20;;
25381;SDS011;16307;42.896;20.874;2023-09-07T09:34:03;12.13;;;5.57;;
25381;SDS011;16307;42.896;20.874;2023-09-07T09:36:50;6.78;;;5.10;;
25381;SDS011;16307;42.896;20.874;2023-09-07T09:39:37;9.18;;;5.40;;
25381;SDS011;16307;42.896;20.874;2023-09-07T09:42:24;8.82;;;5.78;;
25381;SDS011;16307;42.896;20.874;2023-09-07T09:45:11;10.77;;;5.00;;
25381;SDS011;16307;42.896;20.874;2023-09-07T09:47:58;8.43;;;5.50;;
25381;SDS011;16307;42.896;20.874;2023-09-07T09:50:47;9.73;;;5.60;;
25381;SDS011;16307;42.896;20.874;2023-09-07T09:53:34;7.35;;;5.05;;
25381;SDS011;16307;42.896;20.874;2023-09-07T09:56:20;9.35;;;5.43;;
25381;SDS011;16307;42.896;20.874;2023-09-07T09:59:06;8.73;;;5.13;;
25381;SDS011;16307;42.896;20.874;2023-09-07T10:01:52;9.70;;;5.53;;
25381;SDS011;16307;42.896;20.874;2023-09-07T10:04:39;8.95;;;5.25;;
25381;SDS011;16307;42.896;20.874;2023-09-07T10:07:29;8.40;;;5.72;;
25381;SDS011;16307;42.896;20.874;2023-09-07T10:10:31;8.32;;;6.00;;
25381;SDS011;16307;42.896;20.874;2023-09-07T10:16:15;10.60;;;5.00;;
25381;SDS011;16307;42.896;20.874;2023-09-07T10:19:02;6.05;;;4.47;;
25381;SDS011;16307;42.896;20.874;2023-09-07T10:21:48;7.57;;;5.45;;
25381;SDS011;16307;42.896;20.874;2023-09-07T10:24:37;8.32;;;5.40;;
25381;SDS011;16307;42.896;20.874;2023-09-07T10:27:24;10.50;;;6.10;;
25381;SDS011;16307;42.896;20.874;2023-09-07T10:30:10;11.63;;;6.03;;
25381;SDS011;16307;42.896;20.874;2023-09-07T10:32:58;9.68;;;5.90;;
25381;SDS011;16307;42.896;20.874;2023-09-07T10:35:45;13.20;;;5.85;;
25381;SDS011;16307;42.896;20.874;2023-09-07T10:38:31;15.25;;;6.93;;
25381;SDS011;16307;42.896;20.874;2023-09-07T10:41:18;7.47;;;5.65;;
25381;SDS011;16307;42.896;20.874;2023-09-07T10:44:05;15.05;;;7.00;;
25381;SDS011;16307;42.896;20.874;2023-09-07T10:46:52;9.57;;;5.55;;
25381;SDS011;16307;42.896;20.874;2023-09-07T10:49:38;11.02;;;6.15;;
25381;SDS011;16307;42.896;20.874;2023-09-07T10:52:25;12.90;;;5.75;;
25381;SDS011;16307;42.896;20.874;2023-09-07T10:55:11;10.55;;;5.10;;
25381;SDS011;16307;42.896;20.874;2023-09-07T10:57:58;8.75;;;5.45;;
25381;SDS011;16307;42.896;20.874;2023-09-07T11:00:44;9.20;;;5.07;;
25381;SDS011;16307;42.896;20.874;2023-09-07T11:03:30;8.38;;;5.25;;
25381;SDS011;16307;42.896;20.874;2023-09-07T11:06:17;11.02;;;6.30;;
25381;SDS011;16307;42.896;20.874;2023-09-07T11:09:11;10.48;;;6.15;;
25381;SDS011;16307;42.896;20.874;2023-09-07T11:12:03;8.43;;;5.45;;
25381;SDS011;16307;42.896;20.874;2023-09-07T11:14:50;9.95;;;4.63;;
25381;SDS011;16307;42.896;20.874;2023-09-07T11:17:37;9.07;;;6.10;;
25381;SDS011;16307;42.896;20.874;2023-09-07T11:20:25;10.45;;;5.95;;
25381;SDS011;16307;42.896;20.874;2023-09-07T11:23:12;11.65;;;6.03;;
25381;SDS011;16307;42.896;20.874;2023-09-07T11:25:58;13.18;;;6.38;;
25381;SDS011;16307;42.896;20.874;2023-09-07T11:28:47;9.07;;;6.40;;
25381;SDS011;16307;42.896;20.874;2023-09-07T11:31:33;11.05;;;6.60;;
25381;SDS011;16307;42.896;20.874;2023-09-07T11:34:19;12.88;;;6.85;;
25381;SDS011;16307;42.896;20.874;2023-09-07T11:37:05;14.63;;;7.15;;
25381;SDS011;16307;42.896;20.874;2023-09-07T11:39:51;11.15;;;6.53;;
25381;SDS011;16307;42.896;20.874;2023-09-07T11:42:38;9.85;;;5.57;;
25381;SDS011;16307;42.896;20.874;2023-09-07T11:45:25;8.73;;;4.90;;
25381;SDS011;16307;42.896;20.874;2023-09-07T11:48:11;7.55;;;4.85;;
25381;SDS011;16307;42.896;20.874;2023-09-07T11:50:58;6.57;;;4.82;;
25381;SDS011;16307;42.896;20.874;2023-09-07T11:53:44;7.78;;;4.63;;
25381;SDS011;16307;42.896;20.874;2023-09-07T11:56:30;7.57;;;4.30;;
25381;SDS011;16307;42.896;20.874;2023-09-07T11:59:16;6.10;;;4.25;;
25381;SDS011;16307;42.896;20.874;2023-09-07T12:02:03;6.93;;;4.60;;
25381;SDS011;16307;42.896;20.874;2023-09-07T12:04:50;6.32;;;4.47;;
25381;SDS011;16307;42.896;20.874;2023-09-07T12:07:36;8.05;;;4.85;;
25381;SDS011;16307;42.896;20.874;2023-09-07T12:10:24;7.38;;;4.32;;
25381;SDS011;16307;42.896;20.874;2023-09-07T12:13:10;5.57;;;4.00;;
25381;SDS011;16307;42.896;20.874;2023-09-07T12:15:56;6.28;;;4.65;;
25381;SDS011;16307;42.896;20.874;2023-09-07T12:18:42;7.82;;;4.50;;
25381;SDS011;16307;42.896;20.874;2023-09-07T12:21:28;10.05;;;4.63;;
25381;SDS011;16307;42.896;20.874;2023-09-07T12:24:14;6.88;;;4.28;;
25381;SDS011;16307;42.896;20.874;2023-09-07T12:27:00;10.75;;;4.85;;
25381;SDS011;16307;42.896;20.874;2023-09-07T12:29:46;5.25;;;3.67;;
25381;SDS011;16307;42.896;20.874;2023-09-07T12:32:33;6.38;;;3.83;;
25381;SDS011;16307;42.896;20.874;2023-09-07T12:35:19;7.40;;;4.15;;
25381;SDS011;16307;42.896;20.874;2023-09-07T12:38:06;7.70;;;4.22;;
25381;SDS011;16307;42.896;20.874;2023-09-07T12:40:54;8.70;;;4.90;;
25381;SDS011;16307;42.896;20.874;2023-09-07T12:43:41;5.82;;;4.10;;
25381;SDS011;16307;42.896;20.874;2023-09-07T12:46:28;8.75;;;4.70;;
25381;SDS011;16307;42.896;20.874;2023-09-07T12:49:15;9.15;;;4.65;;
25381;SDS011;16307;42.896;20.874;2023-09-07T12:52:01;8.73;;;4.28;;
25381;SDS011;16307;42.896;20.874;2023-09-07T12:54:54;6.57;;;4.38;;
25381;SDS011;16307;42.896;20.874;2023-09-07T12:57:40;6.40;;;4.75;;
25381;SDS011;16307;42.896;20.874;2023-09-07T13:00:26;5.53;;;4.38;;
25381;SDS011;16307;42.896;20.874;2023-09-07T13:03:14;8.15;;;4.20;;
25381;SDS011;16307;42.896;20.874;2023-09-07T13:06:01;6.75;;;4.40;;
25381;SDS011;16307;42.896;20.874;2023-09-07T13:08:48;7.50;;;4.20;;
25381;SDS011;16307;42.896;20.874;2023-09-07T13:11:34;6.28;;;4.38;;
25381;SDS011;16307;42.896;20.874;2023-09-07T13:14:20;7.75;;;4.10;;
25381;SDS011;16307;42.896;20.874;2023-09-07T13:17:17;7.78;;;4.55;;
25381;SDS011;16307;42.896;20.874;2023-09-07T13:20:03;11.52;;;4.95;;
25381;SDS011;16307;42.896;20.874;2023-09-07T13:22:50;8.98;;;5.00;;
25381;SDS011;16307;42.896;20.874;2023-09-07T13:25:37;12.50;;;5.07;;
25381;SDS011;16307;42.896;20.874;2023-09-07T13:28:23;6.65;;;5.03;;
25381;SDS011;16307;42.896;20.874;2023-09-07T13:31:09;7.32;;;4.28;;
25381;SDS011;16307;42.896;20.874;2023-09-07T13:33:55;7.65;;;3.97;;
25381;SDS011;16307;42.896;20.874;2023-09-07T13:36:41;8.98;;;4.50;;
25381;SDS011;16307;42.896;20.874;2023-09-07T13:39:27;7.63;;;4.32;;
25381;SDS011;16307;42.896;20.874;2023-09-07T13:42:13;6.97;;;4.55;;
25381;SDS011;16307;42.896;20.874;2023-09-07T13:45:00;5.38;;;4.03;;
25381;SDS011;16307;42.896;20.874;2023-09-07T13:47:47;9.68;;;5.63;;
25381;SDS011;16307;42.896;20.874;2023-09-07T13:50:33;9.38;;;5.03;;
25381;SDS011;16307;42.896;20.874;2023-09-07T13:53:21;8.40;;;4.28;;
25381;SDS011;16307;42.896;20.874;2023-09-07T13:56:07;13.95;;;5.38;;
25381;SDS011;16307;42.896;20.874;2023-09-07T13:58:53;20.77;;;4.93;;
25381;SDS011;16307;42.896;20.874;2023-09-07T14:01:39;8.27;;;4.75;;
25381;SDS011;16307;42.896;20.874;2023-09-07T14:04:26;7.72;;;5.70;;
25381;SDS011;16307;42.896;20.874;2023-09-07T14:07:13;7.43;;;4.57;;
25381;SDS011;16307;42.896;20.874;2023-09-07T14:09:59;7.35;;;4.57;;
25381;SDS011;16307;42.896;20.874;2023-09-07T14:12:46;9.75;;;5.05;;
25381;SDS011;16307;42.896;20.874;2023-09-07T14:15:34;8.38;;;4.43;;
25381;SDS011;16307;42.896;20.874;2023-09-07T14:18:20;11.35;;;4.97;;
25381;SDS011;16307;42.896;20.874;2023-09-07T14:21:06;29.55;;;6.00;;
25381;SDS011;16307;42.896;20.874;2023-09-07T14:23:52;6.88;;;4.07;;
25381;SDS011;16307;42.896;20.874;2023-09-07T14:26:38;10.90;;;4.95;;
25381;SDS011;16307;42.896;20.874;2023-09-07T14:29:24;5.55;;;4.57;;
25381;SDS011;16307;42.896;20.874;2023-09-07T14:32:12;8.68;;;4.53;;
25381;SDS011;16307;42.896;20.874;2023-09-07T14:34:58;8.88;;;4.75;;
25381;SDS011;16307;42.896;20.874;2023-09-07T14:37:44;9.55;;;4.72;;
25381;SDS011;16307;42.896;20.874;2023-09-07T14:40:31;8.88;;;4.60;;
25381;SDS011;16307;42.896;20.874;2023-09-07T14:43:17;9.05;;;5.00;;
25381;SDS011;16307;42.896;20.874;2023-09-07T14:46:03;11.35;;;4.50;;
25381;SDS011;16307;42.896;20.874;2023-09-07T14:48:49;6.28;;;4.30;;
25381;SDS011;16307;42.896;20.874;2023-09-07T14:51:37;9.40;;;5.03;;
25381;SDS011;16307;42.896;20.874;2023-09-07T14:54:23;7.35;;;4.30;;
25381;SDS011;16307;42.896;20.874;2023-09-07T14:57:09;9.50;;;5.22;;
25381;SDS011;16307;42.896;20.874;2023-09-07T14:59:56;9.80;;;4.53;;
25381;SDS011;16307;42.896;20.874;2023-09-07T15:02:42;10.00;;;5.35;;
25381;SDS011;16307;42.896;20.874;2023-09-07T15:05:28;10.23;;;4.75;;
25381;SDS011;16307;42.896;20.874;2023-09-07T15:08:15;9.60;;;4.82;;
25381;SDS011;16307;42.896;20.874;2023-09-07T15:11:01;11.38;;;5.05;;
25381;SDS011;16307;42.896;20.874;2023-09-07T15:13:48;6.88;;;4.72;;
25381;SDS011;16307;42.896;20.874;2023-09-07T15:16:35;10.98;;;4.78;;
25381;SDS011;16307;42.896;20.874;2023-09-07T15:19:21;27.33;;;7.10;;
25381;SDS011;16307;42.896;20.874;2023-09-07T15:22:07;12.13;;;6.43;;
25381;SDS011;16307;42.896;20.874;2023-09-07T15:24:54;14.13;;;5.60;;
25381;SDS011;16307;42.896;20.874;2023-09-07T15:27:43;16.33;;;7.90;;
25381;SDS011;16307;42.896;20.874;2023-09-07T15:30:30;12.52;;;6.15;;
25381;SDS011;16307;42.896;20.874;2023-09-07T15:33:16;31.35;;;9.57;;
25381;SDS011;16307;42.896;20.874;2023-09-07T15:36:02;27.80;;;11.38;;
25381;SDS011;16307;42.896;20.874;2023-09-07T15:38:48;19.95;;;10.70;;
25381;SDS011;16307;42.896;20.874;2023-09-07T15:41:36;11.73;;;5.05;;
25381;SDS011;16307;42.896;20.874;2023-09-07T15:44:22;12.88;;;5.18;;
25381;SDS011;16307;42.896;20.874;2023-09-07T15:47:08;9.63;;;4.90;;
25381;SDS011;16307;42.896;20.874;2023-09-07T15:49:55;6.68;;;4.72;;
25381;SDS011;16307;42.896;20.874;2023-09-07T15:52:47;13.52;;;4.95;;
25381;SDS011;16307;42.896;20.874;2023-09-07T15:55:34;8.10;;;4.80;;
25381;SDS011;16307;42.896;20.874;2023-09-07T15:58:21;9.38;;;4.47;;
25381;SDS011;16307;42.896;20.874;2023-09-07T16:01:07;6.57;;;4.50;;
25381;SDS011;16307;42.896;20.874;2023-09-07T16:03:53;6.50;;;4.22;;
25381;SDS011;16307;42.896;20.874;2023-09-07T16:06:40;8.30;;;4.18;;
25381;SDS011;16307;42.896;20.874;2023-09-07T16:09:26;7.47;;;4.82;;
25381;SDS011;16307;42.896;20.874;2023-09-07T16:12:13;5.90;;;4.22;;
25381;SDS011;16307;42.896;20.874;2023-09-07T16:14:59;6.43;;;4.45;;
25381;SDS011;16307;42.896;20.874;2023-09-07T16:17:45;12.93;;;5.70;;
25381;SDS011;16307;42.896;20.874;2023-09-07T16:20:31;10.95;;;5.60;;
25381;SDS011;16307;42.896;20.874;2023-09-07T16:23:17;7.97;;;5.43;;
25381;SDS011;16307;42.896;20.874;2023-09-07T16:26:03;7.13;;;4.43;;